Time;durP1;ratioP1;P1;durP2;ratioP2;P2;SDS_P1;SDS_P2;PMS_P1;PMS_P2;Temp;Humidity;BMP_temperature;BMP_pressure;BME280_temperature;BME280_humidity;BME280_pressure;Samples;Min_cycle;Max_cycle;Signal;HPM_P1;HPM_P2
2023/08/23 00:00:40;;;;;;;6.93;1.67;;;;;;;17.11;100.00;101053.44;5216925;28;20021;-72
2023/08/23 00:03:10;;;;;;;3.40;1.45;;;;;;;17.24;100.00;101049.16;5212215;28;20032;-71
2023/08/23 00:05:43;;;;;;;10.50;1.88;;;;;;;17.40;100.00;101057.97;5216170;28;20432;-72
2023/08/23 00:08:13;;;;;;;4.80;1.73;;;;;;;17.27;100.00;101051.63;5214861;28;20102;-72
2023/08/23 00:10:44;;;;;;;2.80;1.58;;;;;;;17.19;100.00;101048.56;5217915;28;20067;-72
2023/08/23 00:13:14;;;;;;;4.80;1.67;;;;;;;17.31;100.00;101054.03;5217315;28;20052;-71
2023/08/23 00:15:44;;;;;;;7.25;1.60;;;;;;;17.35;100.00;101049.47;5215491;28;20513;-72
2023/08/23 00:18:15;;;;;;;5.25;1.85;;;;;;;17.28;100.00;101056.00;5210495;28;20025;-71
2023/08/23 00:20:45;;;;;;;6.35;2.08;;;;;;;17.09;100.00;101052.63;5219538;28;20021;-72
2023/08/23 00:23:15;;;;;;;7.05;1.92;;;;;;;17.10;100.00;101056.97;5215345;28;20470;-71
2023/08/23 00:25:46;;;;;;;6.10;2.10;;;;;;;16.90;100.00;101054.56;5214284;28;20021;-72
2023/08/23 00:28:19;;;;;;;5.55;2.13;;;;;;;16.91;100.00;101057.16;5210316;28;20035;-71
2023/08/23 00:30:53;;;;;;;4.38;1.73;;;;;;;16.99;100.00;101062.03;5216807;28;20033;-71
2023/08/23 00:33:23;;;;;;;8.00;2.15;;;;;;;16.88;100.00;101057.31;5213273;28;20031;-72
2023/08/23 00:35:54;;;;;;;4.30;2.00;;;;;;;16.76;100.00;101053.63;5217098;28;20025;-71
2023/08/23 00:38:24;;;;;;;4.93;1.90;;;;;;;16.82;100.00;101062.06;5216316;28;20027;-72
2023/08/23 00:40:54;;;;;;;4.78;1.80;;;;;;;17.07;100.00;101062.44;5209525;28;20460;-72
2023/08/23 00:43:25;;;;;;;3.38;1.73;;;;;;;17.05;100.00;101056.38;5210784;28;20028;-72
2023/08/23 00:45:55;;;;;;;4.22;1.65;;;;;;;17.08;100.00;101058.88;5210894;28;20020;-72
2023/08/23 00:48:25;;;;;;;5.25;2.13;;;;;;;17.03;100.00;101059.13;5209998;28;20030;-72
2023/08/23 00:50:57;;;;;;;3.75;1.65;;;;;;;17.17;100.00;101053.09;5213273;28;20021;-72
2023/08/23 00:53:27;;;;;;;7.68;1.70;;;;;;;17.08;100.00;101058.88;5216394;28;20033;-72
2023/08/23 00:55:59;;;;;;;3.10;1.60;;;;;;;17.06;100.00;101063.38;5212940;28;20036;-72
2023/08/23 00:58:30;;;;;;;6.18;1.65;;;;;;;16.93;100.00;101055.28;5205933;28;20052;-71
2023/08/23 01:01:00;;;;;;;4.25;1.85;;;;;;;16.82;100.00;101049.69;5207742;28;20029;-72
2023/08/23 01:03:31;;;;;;;5.82;1.80;;;;;;;16.94;100.00;101042.94;5213147;28;20029;-72
2023/08/23 01:06:17;;;;;;;8.15;2.08;;;;;;;16.80;100.00;101048.09;5207893;28;20501;-72
2023/08/23 01:08:50;;;;;;;6.47;2.10;;;;;;;16.50;100.00;101055.00;5209803;28;20052;-72
2023/08/23 01:11:40;;;;;;;4.25;1.95;;;;;;;16.54;100.00;101051.25;5212963;28;20029;-72
2023/08/23 01:14:45;;;;;;;3.58;1.80;;;;;;;16.51;100.00;101043.50;5205309;28;20517;-71
2023/08/23 01:17:15;;;;;;;4.80;1.88;;;;;;;16.28;100.00;101051.72;5213273;28;20490;-71
2023/08/23 01:19:48;;;;;;;3.78;2.05;;;;;;;16.31;100.00;101053.34;5216925;28;20100;-72
2023/08/23 01:22:21;;;;;;;6.18;2.05;;;;;;;16.29;100.00;101045.50;5214817;28;20029;-72
2023/08/23 01:24:53;;;;;;;8.93;2.20;;;;;;;16.28;100.00;101045.59;5212809;28;20453;-71
2023/08/23 01:27:23;;;;;;;8.15;2.58;;;;;;;16.34;100.00;101045.25;5210789;28;20108;-72
2023/08/23 01:29:53;;;;;;;6.13;2.00;;;;;;;16.23;100.00;101045.81;5205664;28;20540;-71
2023/08/23 01:32:30;;;;;;;5.80;1.98;;;;;;;16.22;100.00;101044.09;5213059;28;20040;-71
2023/08/23 01:35:23;;;;;;;3.38;2.22;;;;;;;16.26;100.00;101040.41;5211719;28;20110;-72
2023/08/23 01:37:57;;;;;;;4.53;2.20;;;;;;;16.21;100.00;101042.41;5212427;28;20391;-72
2023/08/23 01:40:28;;;;;;;7.32;2.10;;;;;;;16.19;100.00;101038.16;5214301;28;20029;-72
2023/08/23 01:42:59;;;;;;;4.07;2.17;;;;;;;16.20;100.00;101035.41;5213322;28;20028;-72
2023/08/23 01:45:29;;;;;;;7.28;2.03;;;;;;;16.28;100.00;101041.16;5213131;28;20158;-72
2023/08/23 01:47:59;;;;;;;7.40;2.00;;;;;;;16.45;100.00;101035.03;5214210;28;20075;-72
2023/08/23 01:50:30;;;;;;;5.75;2.10;;;;;;;16.41;100.00;101038.78;5212882;28;20032;-72
2023/08/23 01:53:00;;;;;;;10.27;2.28;;;;;;;16.42;100.00;101033.41;5210590;28;20036;-71
2023/08/23 01:55:30;;;;;;;6.53;2.40;;;;;;;16.40;100.00;101040.56;5211463;28;20077;-72
2023/08/23 01:58:00;;;;;;;5.15;2.40;;;;;;;16.36;100.00;101033.72;5205122;28;20032;-72
2023/08/23 02:00:31;;;;;;;4.10;1.95;;;;;;;16.46;100.00;101027.06;5209874;28;20164;-72
2023/08/23 02:03:01;;;;;;;10.50;2.00;;;;;;;16.51;100.00;101032.94;5211209;28;20550;-71
2023/08/23 02:05:31;;;;;;;6.50;1.88;;;;;;;16.60;100.00;101034.25;5213773;28;20087;-72
2023/08/23 02:08:02;;;;;;;4.97;2.00;;;;;;;16.30;100.00;101041.06;5212525;28;20363;-72
2023/08/23 02:10:32;;;;;;;3.17;2.05;;;;;;;16.36;100.00;101049.56;5212999;28;20020;-71
2023/08/23 02:13:06;;;;;;;4.22;1.85;;;;;;;16.36;100.00;101046.94;5210648;28;20037;-71
2023/08/23 02:15:36;;;;;;;4.80;2.28;;;;;;;16.30;100.00;101041.94;5207327;28;20028;-71
2023/08/23 02:18:07;;;;;;;3.25;1.75;;;;;;;16.33;100.00;101038.28;5211142;28;20071;-72
2023/08/23 02:20:37;;;;;;;6.07;2.28;;;;;;;16.29;100.00;101045.50;5212487;28;20427;-72
2023/08/23 02:23:07;;;;;;;5.03;1.90;;;;;;;16.22;100.00;101043.28;5205866;28;20087;-72
2023/08/23 02:25:38;;;;;;;3.35;1.80;;;;;;;16.20;100.00;101045.13;5213690;28;20024;-71
2023/08/23 02:28:08;;;;;;;3.75;1.90;;;;;;;16.09;100.00;101032.50;5209268;28;20454;-72
2023/08/23 02:30:38;;;;;;;7.15;2.05;;;;;;;16.04;100.00;101039.75;5207132;28;20447;-72
2023/08/23 02:33:09;;;;;;;5.55;2.10;;;;;;;15.92;100.00;101050.94;5210499;28;20092;-72
2023/08/23 02:35:41;;;;;;;4.40;2.13;;;;;;;16.01;100.00;101045.19;5208615;28;20482;-72
2023/08/23 02:38:12;;;;;;;4.03;1.98;;;;;;;15.85;100.00;101043.41;5210348;28;20036;-71
2023/08/23 02:40:43;;;;;;;5.60;2.08;;;;;;;15.76;100.00;101043.84;5208669;28;20036;-71
2023/08/23 02:43:13;;;;;;;4.80;2.30;;;;;;;15.74;100.00;101051.81;5206160;28;20514;-71
2023/08/23 02:45:43;;;;;;;6.95;2.40;;;;;;;15.78;100.00;101042.00;5214048;28;20033;-72
2023/08/23 02:48:14;;;;;;;4.57;2.10;;;;;;;15.84;100.00;101039.06;5206009;28;20483;-71
2023/08/23 02:50:44;;;;;;;7.50;2.10;;;;;;;15.75;100.00;101040.38;5208474;28;20104;-72
2023/08/23 02:53:15;;;;;;;5.57;2.20;;;;;;;15.82;100.00;101036.50;5208753;28;20591;-71
2023/08/23 02:55:45;;;;;;;6.18;2.20;;;;;;;15.89;100.00;101039.69;5210263;28;20083;-72
2023/08/23 02:58:15;;;;;;;4.35;2.55;;;;;;;15.78;100.00;101036.72;5207081;28;20029;-71
2023/08/23 03:00:45;;;;;;;4.47;2.25;;;;;;;15.75;100.00;101032.47;5209942;28;20025;-72
2023/08/23 03:03:16;;;;;;;5.75;2.20;;;;;;;15.63;100.00;101027.81;5208233;28;20032;-71
2023/08/23 03:05:55;;;;;;;4.90;2.08;;;;;;;15.60;100.00;101033.22;5212726;28;20033;-72
2023/08/23 03:08:26;;;;;;;5.78;2.53;;;;;;;15.57;100.00;101030.72;5210496;28;20296;-72
2023/08/23 03:11:03;;;;;;;5.85;2.53;;;;;;;15.57;100.00;101022.81;5214402;28;20530;-72
2023/08/23 03:13:34;;;;;;;5.63;2.58;;;;;;;15.53;100.00;101026.53;5212534;28;20082;-71
2023/08/23 03:16:04;;;;;;;5.50;2.35;;;;;;;15.50;100.00;101031.13;5217245;28;20387;-72
2023/08/23 03:18:35;;;;;;;6.07;3.80;;;;;;;15.52;100.00;101018.72;5214042;28;20043;-71
2023/08/23 03:21:05;;;;;;;13.90;3.63;;;;;;;15.46;100.00;101026.88;5215015;28;20028;-74
2023/08/23 03:23:35;;;;;;;10.10;3.55;;;;;;;15.42;100.00;101020.94;5214286;28;20025;-74
2023/08/23 03:26:06;;;;;;;4.50;2.67;;;;;;;15.40;100.00;101021.94;5214142;28;20029;-74
2023/08/23 03:28:36;;;;;;;5.15;2.53;;;;;;;15.42;100.00;101013.03;5214053;28;20494;-74
2023/08/23 03:31:06;;;;;;;8.15;2.58;;;;;;;15.46;100.00;101021.63;5216112;28;21552;-74
2023/08/23 03:33:37;;;;;;;5.55;2.70;;;;;;;15.51;100.00;101027.56;5214560;28;20055;-74
2023/08/23 03:36:07;;;;;;;4.15;2.30;;;;;;;15.49;100.00;101019.69;5213788;28;20035;-74
2023/08/23 03:38:37;;;;;;;4.13;2.38;;;;;;;15.41;100.00;101027.13;5214087;28;20036;-74
2023/08/23 03:41:14;;;;;;;6.28;2.70;;;;;;;15.39;100.00;101028.13;5213596;28;20021;-74
2023/08/23 03:43:45;;;;;;;8.18;2.40;;;;;;;15.31;100.00;101019.72;5213794;28;20109;-74
2023/08/23 03:46:15;;;;;;;6.95;2.65;;;;;;;15.31;100.00;101031.13;5212870;28;20115;-74
2023/08/23 03:48:45;;;;;;;6.25;2.28;;;;;;;15.47;100.00;101020.69;5213946;28;20094;-74
2023/08/23 03:51:15;;;;;;;6.65;2.17;;;;;;;15.44;100.00;101026.13;5210610;28;20029;-74
2023/08/23 03:53:46;;;;;;;4.93;2.28;;;;;;;15.56;100.00;101033.44;5214400;28;20474;-74
2023/08/23 03:56:16;;;;;;;5.38;2.30;;;;;;;15.43;100.00;101025.28;5211698;28;20021;-73
2023/08/23 03:58:46;;;;;;;7.22;2.70;;;;;;;15.28;100.00;101036.50;5212544;28;20029;-74
2023/08/23 04:01:17;;;;;;;4.75;2.25;;;;;;;15.29;100.00;101032.13;5212046;28;20410;-74
2023/08/23 04:03:47;;;;;;;5.03;2.70;;;;;;;15.32;100.00;101035.47;5213328;28;20040;-74
2023/08/23 04:06:17;;;;;;;7.10;2.95;;;;;;;15.41;100.00;101040.31;5212403;28;20556;-74
2023/08/23 04:08:47;;;;;;;4.55;2.30;;;;;;;15.38;100.00;101036.97;5214633;28;20102;-73
2023/08/23 04:11:18;;;;;;;4.43;2.50;;;;;;;15.26;100.00;101038.38;5216155;28;20028;-74
2023/08/23 04:13:48;;;;;;;5.25;2.20;;;;;;;15.19;100.00;101036.94;5214151;28;20099;-73
2023/08/23 04:16:18;;;;;;;8.18;2.35;;;;;;;15.29;100.00;101037.38;5212795;28;20115;-74
2023/08/23 04:18:49;;;;;;;5.00;2.30;;;;;;;15.28;100.00;101036.50;5213859;28;20402;-73
2023/08/23 04:21:19;;;;;;;4.97;1.98;;;;;;;15.47;100.00;101032.09;5213700;28;20038;-74
2023/08/23 04:23:49;;;;;;;3.47;2.20;;;;;;;15.47;100.00;101026.84;5210976;28;20606;-73
2023/08/23 04:26:20;;;;;;;3.35;2.13;;;;;;;15.41;100.00;101032.41;5207757;28;20033;-74
2023/08/23 04:28:50;;;;;;;4.13;2.00;;;;;;;15.43;100.00;101030.56;5213478;28;20083;-74
2023/08/23 04:31:20;;;;;;;4.15;2.10;;;;;;;15.55;100.00;101031.72;5215745;28;20021;-74
2023/08/23 04:33:51;;;;;;;6.75;2.25;;;;;;;15.54;100.00;101038.78;5212230;28;20021;-74
2023/08/23 04:36:21;;;;;;;2.67;1.77;;;;;;;15.61;100.00;101034.06;5215364;28;20049;-74
2023/08/23 04:38:51;;;;;;;5.65;2.45;;;;;;;15.64;100.00;101037.41;5213805;28;20167;-73
2023/08/23 04:41:22;;;;;;;4.47;1.98;;;;;;;15.39;100.00;101036.03;5214722;28;20017;-74
2023/08/23 04:43:52;;;;;;;9.15;2.53;;;;;;;15.50;100.00;101036.38;5213346;28;20030;-71
2023/08/23 04:46:22;;;;;;;5.13;2.25;;;;;;;15.61;100.00;101029.66;5214150;28;20112;-72
2023/08/23 04:48:52;;;;;;;5.85;2.30;;;;;;;15.91;100.00;101032.56;5212483;28;20024;-71
2023/08/23 04:51:23;;;;;;;5.05;2.15;;;;;;;15.88;100.00;101038.81;5211102;28;20024;-72
2023/08/23 04:53:53;;;;;;;4.20;1.90;;;;;;;15.97;100.00;101035.75;5213466;28;20052;-71
2023/08/23 04:56:24;;;;;;;3.70;2.05;;;;;;;15.99;100.00;101033.88;5210530;28;20065;-71
2023/08/23 04:58:54;;;;;;;3.90;1.75;;;;;;;15.98;100.00;101034.81;5211713;28;20437;-72
2023/08/23 05:01:24;;;;;;;3.92;2.08;;;;;;;16.21;100.00;101031.84;5214903;28;20025;-72
2023/08/23 05:03:55;;;;;;;3.17;2.28;;;;;;;16.31;100.00;101026.94;5211095;28;20095;-71
2023/08/23 05:06:25;;;;;;;6.28;2.05;;;;;;;16.54;100.00;101029.31;5207613;28;20045;-71
2023/08/23 05:08:55;;;;;;;5.90;2.63;;;;;;;16.44;100.00;101028.94;5211043;28;20439;-72
2023/08/23 05:11:26;;;;;;;5.90;2.20;;;;;;;16.44;100.00;101028.94;5210734;28;20082;-71
2023/08/23 05:13:56;;;;;;;4.38;2.38;;;;;;;16.59;100.00;101028.09;5210525;28;20518;-72
2023/08/23 05:16:27;;;;;;;3.58;2.22;;;;;;;17.02;100.00;101024.88;5215689;28;20025;-72
2023/08/23 05:18:57;;;;;;;4.13;2.13;;;;;;;17.66;100.00;101023.00;5213980;28;20478;-72
2023/08/23 05:21:27;;;;;;;7.72;2.42;;;;;;;18.08;100.00;101025.78;5212582;28;20025;-71
2023/08/23 05:23:57;;;;;;;4.28;2.28;;;;;;;18.49;100.00;101024.22;5212869;28;20067;-72
2023/08/23 05:26:28;;;;;;;5.30;2.03;;;;;;;20.12;100.00;101024.16;5211643;28;20021;-72
2023/08/23 05:28:58;;;;;;;4.35;1.95;;;;;;;21.21;89.03;101019.06;5214622;28;20036;-72
2023/08/23 05:31:28;;;;;;;3.63;1.83;;;;;;;21.77;85.19;101021.91;5213569;28;20048;-71
2023/08/23 05:33:59;;;;;;;5.87;1.80;;;;;;;22.05;84.34;101023.38;5213510;28;20052;-72
2023/08/23 05:36:30;;;;;;;5.73;1.90;;;;;;;22.28;84.06;101033.13;5215039;28;20292;-71
2023/08/23 05:39:03;;;;;;;3.53;2.00;;;;;;;22.20;82.54;101019.53;5213285;28;20382;-72
2023/08/23 05:41:33;;;;;;;4.00;1.73;;;;;;;21.70;83.63;101027.81;5211084;28;20060;-72
2023/08/23 05:44:03;;;;;;;3.20;1.70;;;;;;;21.25;89.16;101033.81;5213745;28;20514;-72
2023/08/23 05:46:34;;;;;;;3.78;1.52;;;;;;;21.41;87.15;101034.41;5212019;28;20271;-72
2023/08/23 05:49:04;;;;;;;2.50;1.50;;;;;;;22.71;83.87;101030.56;5210555;28;20075;-72
2023/08/23 05:51:34;;;;;;;3.70;1.60;;;;;;;22.54;82.71;101030.19;5209725;28;20779;-72
2023/08/23 05:54:05;;;;;;;4.22;1.77;;;;;;;21.93;84.27;101033.13;5210972;28;20461;-72
2023/08/23 05:56:36;;;;;;;5.50;1.83;;;;;;;21.57;85.93;101032.34;5212259;28;20021;-72
2023/08/23 05:59:06;;;;;;;3.28;2.10;;;;;;;20.75;90.34;101040.00;5211241;28;20090;-72
2023/08/23 06:01:38;;;;;;;2.88;2.00;;;;;;;20.43;91.00;101050.34;5209796;28;20057;-72
2023/08/23 06:04:08;;;;;;;3.67;2.08;;;;;;;20.11;95.11;101052.50;5210521;28;20434;-72
2023/08/23 06:06:38;;;;;;;3.78;2.40;;;;;;;19.63;99.11;101049.56;5212294;28;20028;-71
2023/08/23 06:09:09;;;;;;;7.30;2.70;;;;;;;19.23;100.00;101043.31;5211512;28;20028;-74
2023/08/23 06:11:39;;;;;;;8.02;2.50;;;;;;;19.16;100.00;101043.78;5210539;28;20052;-74
2023/08/23 06:14:21;;;;;;;6.57;2.63;;;;;;;19.28;100.00;101045.69;5208580;28;20029;-74
2023/08/23 06:16:52;;;;;;;4.20;2.53;;;;;;;19.27;100.00;101052.78;5212872;28;20021;-75
2023/08/23 06:19:22;;;;;;;8.45;3.00;;;;;;;19.38;100.00;101058.25;5211917;28;20044;-74
2023/08/23 06:21:52;;;;;;;6.32;3.42;;;;;;;19.66;100.00;101054.66;5212240;28;20032;-74
2023/08/23 06:24:23;;;;;;;5.40;3.50;;;;;;;19.68;100.00;101055.41;5207367;28;20013;-74
2023/08/23 06:26:53;;;;;;;8.18;3.88;;;;;;;19.67;100.00;101059.03;5208471;28;20057;-74
2023/08/23 06:29:24;;;;;;;8.07;4.35;;;;;;;19.78;100.00;101069.78;5210603;28;20560;-74
2023/08/23 06:31:54;;;;;;;6.32;4.25;;;;;;;19.88;100.00;101063.78;5210530;28;20054;-74
2023/08/23 06:34:24;;;;;;;8.77;4.43;;;;;;;20.20;100.00;101059.88;5207428;28;20499;-72
2023/08/23 06:36:54;;;;;;;8.30;3.70;;;;;;;22.33;96.09;101052.25;5212427;28;20032;-72
2023/08/23 06:39:25;;;;;;;11.13;4.00;;;;;;;23.51;86.67;101048.97;5209872;28;20056;-72
2023/08/23 06:41:55;;;;;;;4.93;2.87;;;;;;;25.50;78.55;101041.47;5209610;28;20020;-72
2023/08/23 06:44:25;;;;;;;7.07;3.35;;;;;;;26.91;73.19;101045.09;5211076;28;20565;-73
2023/08/23 06:46:56;;;;;;;8.73;3.57;;;;;;;26.85;73.07;101054.59;5210992;28;20457;-73
2023/08/23 06:49:26;;;;;;;6.23;3.20;;;;;;;27.16;68.79;101053.38;5213715;28;20341;-73
2023/08/23 06:51:57;;;;;;;5.93;2.93;;;;;;;28.52;68.90;101049.44;5211563;28;20286;-73
2023/08/23 06:54:28;;;;;;;7.00;3.17;;;;;;;28.73;66.68;101050.75;5212083;28;20280;-73
2023/08/23 06:56:58;;;;;;;8.40;3.75;;;;;;;28.41;66.94;101052.38;5212240;28;20031;-73
2023/08/23 06:59:28;;;;;;;9.07;3.33;;;;;;;27.99;67.97;101045.09;5212464;28;20393;-73
2023/08/23 07:01:58;;;;;;;6.97;2.33;;;;;;;29.44;67.14;101048.59;5211101;28;20868;-73
2023/08/23 07:04:29;;;;;;;5.88;2.85;;;;;;;29.53;63.50;101040.41;5214359;28;20285;-73
2023/08/23 07:06:59;;;;;;;5.73;2.17;;;;;;;31.04;62.41;101039.56;5208542;28;20028;-73
2023/08/23 07:09:29;;;;;;;3.20;2.10;;;;;;;31.30;62.00;101037.50;5209955;28;20280;-74
2023/08/23 07:12:00;;;;;;;4.60;2.47;;;;;;;32.36;58.32;101040.19;5208689;28;20120;-74
2023/08/23 07:14:30;;;;;;;6.87;2.73;;;;;;;30.94;61.13;101043.50;5208612;28;20027;-73
2023/08/23 07:17:00;;;;;;;6.03;2.63;;;;;;;31.02;59.13;101040.78;5210888;28;20033;-73
2023/08/23 07:19:30;;;;;;;6.47;3.20;;;;;;;32.10;58.57;101050.56;5209321;28;20060;-73
2023/08/23 07:22:02;;;;;;;6.80;3.90;;;;;;;30.92;59.21;101056.31;5207275;28;20025;-74
2023/08/23 07:24:32;;;;;;;6.60;3.47;;;;;;;30.50;61.25;101060.25;5210173;28;20646;-74
2023/08/23 07:27:02;;;;;;;6.35;3.85;;;;;;;30.22;62.06;101062.47;5209771;28;20183;-73
2023/08/23 07:29:35;;;;;;;7.68;4.25;;;;;;;28.25;65.70;101067.47;5209797;28;20036;-73
2023/08/23 07:32:06;;;;;;;9.20;3.92;;;;;;;29.54;63.70;101054.75;5209282;28;20052;-73
2023/08/23 07:34:36;;;;;;;9.10;3.63;;;;;;;27.84;67.54;101060.91;5206985;28;20495;-73
2023/08/23 07:37:06;;;;;;;8.23;4.83;;;;;;;25.09;75.32;101079.03;5208576;28;20074;-73
2023/08/23 07:39:37;;;;;;;8.23;4.25;;;;;;;25.80;74.09;101074.38;5209175;28;20264;-73
2023/08/23 07:42:07;;;;;;;10.25;4.40;;;;;;;25.79;73.07;101064.63;5209180;28;20044;-72
2023/08/23 07:44:37;;;;;;;8.73;4.43;;;;;;;25.84;74.10;101065.09;5209791;28;20402;-73
2023/08/23 07:47:08;;;;;;;8.68;4.20;;;;;;;26.64;72.59;101071.88;5207620;28;20021;-72
2023/08/23 07:49:38;;;;;;;9.27;4.63;;;;;;;26.34;73.99;101068.50;5209194;28;20036;-73
2023/08/23 07:52:08;;;;;;;12.43;4.70;;;;;;;27.39;69.84;101065.41;5208884;28;20079;-73
2023/08/23 07:54:39;;;;;;;7.93;4.30;;;;;;;27.58;68.51;101059.06;5211866;28;20085;-73
2023/08/23 07:57:09;;;;;;;8.80;3.97;;;;;;;27.55;69.12;101067.41;5213270;28;20380;-73
2023/08/23 07:59:39;;;;;;;7.47;4.50;;;;;;;26.98;71.04;101068.53;5213689;28;20283;-73
2023/08/23 08:02:10;;;;;;;8.43;4.38;;;;;;;27.57;69.39;101066.28;5211846;28;20026;-72
2023/08/23 08:04:43;;;;;;;9.13;4.47;;;;;;;26.78;70.85;101074.91;5213486;28;20066;-73
2023/08/23 08:07:13;;;;;;;12.80;4.47;;;;;;;26.88;70.35;101070.38;5212022;28;20021;-71
2023/08/23 08:09:43;;;;;;;7.97;4.63;;;;;;;25.73;74.41;101075.06;5213468;28;20517;-71
2023/08/23 08:12:13;;;;;;;8.73;4.30;;;;;;;25.87;73.62;101080.88;5210538;28;20104;-72
2023/08/23 08:14:44;;;;;;;9.60;4.60;;;;;;;26.47;72.66;101079.75;5211475;28;20276;-71
2023/08/23 08:17:14;;;;;;;6.78;4.15;;;;;;;27.16;71.45;101077.53;5211258;28;20353;-72
2023/08/23 08:19:45;;;;;;;8.93;4.90;;;;;;;26.72;71.66;101071.97;5212737;28;20376;-71
2023/08/23 08:22:15;;;;;;;6.50;3.60;;;;;;;27.94;69.13;101079.66;5210755;28;20271;-72
2023/08/23 08:24:45;;;;;;;7.30;3.53;;;;;;;27.60;71.05;101076.72;5213554;28;20627;-72
2023/08/23 08:27:16;;;;;;;7.83;3.80;;;;;;;28.97;65.85;101075.16;5213646;28;20278;-73
2023/08/23 08:29:46;;;;;;;6.85;4.03;;;;;;;29.52;65.48;101076.44;5211509;28;20793;-72
2023/08/23 08:32:16;;;;;;;7.63;4.20;;;;;;;30.31;63.23;101074.09;5212903;28;20475;-73
2023/08/23 08:34:47;;;;;;;9.63;2.90;;;;;;;31.85;61.65;101078.78;5210551;28;20033;-72
2023/08/23 08:37:18;;;;;;;5.57;3.70;;;;;;;32.00;58.75;101074.28;5210889;28;20033;-72
2023/08/23 08:39:49;;;;;;;6.72;3.47;;;;;;;30.68;61.65;101085.25;5213594;28;20053;-72
2023/08/23 08:42:19;;;;;;;3.90;2.22;;;;;;;32.31;59.64;101083.22;5212661;28;20033;-73
2023/08/23 08:44:51;;;;;;;6.53;3.35;;;;;;;34.35;53.95;101082.16;5211075;28;20025;-72
2023/08/23 08:47:24;;;;;;;4.95;2.70;;;;;;;33.71;55.33;101081.25;5214730;28;20359;-73
2023/08/23 08:49:55;;;;;;;6.72;3.35;;;;;;;32.36;58.48;101088.09;5210329;28;20104;-73
2023/08/23 08:52:28;;;;;;;5.82;3.67;;;;;;;29.95;62.38;101083.47;5209983;28;20136;-73
2023/08/23 08:55:00;;;;;;;8.65;3.00;;;;;;;30.93;61.22;101075.06;5211424;28;20138;-73
2023/08/23 08:57:32;;;;;;;6.85;2.90;;;;;;;31.84;58.70;101071.69;5210556;28;20025;-73
2023/08/23 09:00:05;;;;;;;6.97;3.25;;;;;;;31.28;59.92;101073.81;5209316;28;20029;-73
2023/08/23 09:02:39;;;;;;;3.17;1.90;;;;;;;33.58;57.48;101061.22;5210939;28;20022;-73
2023/08/23 09:05:09;;;;;;;5.13;2.40;;;;;;;31.94;58.45;101077.72;5208638;28;20021;-73
2023/08/23 09:07:41;;;;;;;6.22;2.22;;;;;;;32.52;57.73;101072.53;5212606;28;20025;-73
2023/08/23 09:10:13;;;;;;;6.13;2.53;;;;;;;33.33;55.88;101073.41;5210152;28;20451;-73
2023/08/23 09:12:43;;;;;;;7.75;3.13;;;;;;;30.29;60.74;101074.25;5212743;28;20163;-73
2023/08/23 09:15:19;;;;;;;6.30;2.87;;;;;;;31.29;59.24;101075.47;5216046;28;20103;-73
2023/08/23 09:17:54;;;;;;;4.57;2.22;;;;;;;32.42;57.48;101071.94;5212324;28;20029;-72
2023/08/23 09:20:25;;;;;;;7.13;2.55;;;;;;;31.64;59.46;101075.84;5215129;28;20078;-73
2023/08/23 09:22:56;;;;;;;5.78;2.03;;;;;;;33.21;56.17;101077.63;5211858;28;20053;-72
2023/08/23 09:25:26;;;;;;;7.30;2.90;;;;;;;30.46;61.01;101080.50;5215517;28;20471;-73
2023/08/23 09:27:56;;;;;;;7.47;2.70;;;;;;;30.60;61.08;101078.00;5214100;28;20028;-72
2023/08/23 09:30:27;;;;;;;7.75;3.00;;;;;;;31.37;60.16;101079.00;5217367;28;20020;-72
2023/08/23 09:32:57;;;;;;;5.60;2.70;;;;;;;29.88;61.35;101082.47;5214630;28;20075;-72
2023/08/23 09:35:29;;;;;;;6.57;3.28;;;;;;;28.73;63.63;101084.91;5212109;28;20337;-72
2023/08/23 09:37:59;;;;;;;6.38;3.03;;;;;;;27.20;69.64;101092.34;5213150;28;20032;-74
2023/08/23 09:40:29;;;;;;;6.10;2.60;;;;;;;28.35;67.05;101085.28;5213505;28;20025;-72
2023/08/23 09:43:00;;;;;;;7.38;2.50;;;;;;;28.84;67.25;101087.31;5212433;28;20384;-72
2023/08/23 09:45:31;;;;;;;6.45;2.50;;;;;;;29.35;63.85;101081.91;5216498;28;20119;-72
2023/08/23 09:48:05;;;;;;;7.72;2.70;;;;;;;29.10;65.10;101083.63;5216462;28;20021;-72
2023/08/23 09:50:36;;;;;;;5.47;2.58;;;;;;;29.18;63.29;101081.00;5209783;28;20079;-73
2023/08/23 09:53:15;;;;;;;8.40;2.97;;;;;;;29.36;63.29;101081.75;5211730;28;20033;-72
2023/08/23 09:55:46;;;;;;;7.93;2.85;;;;;;;28.03;64.46;101087.63;5211402;28;20475;-72
2023/08/23 09:58:17;;;;;;;11.70;2.90;;;;;;;27.61;67.82;101085.63;5208261;28;20037;-72
2023/08/23 10:00:49;;;;;;;4.05;2.60;;;;;;;26.95;68.53;101084.91;5212564;28;20479;-71
2023/08/23 10:03:20;;;;;;;6.50;3.45;;;;;;;27.38;66.78;101076.28;5213196;28;20017;-71
2023/08/23 10:05:51;;;;;;;5.10;2.33;;;;;;;27.66;66.44;101081.50;5210972;28;20029;-72
2023/08/23 10:08:23;;;;;;;7.40;2.60;;;;;;;27.77;67.72;101078.63;5214988;28;20025;-72
2023/08/23 10:10:54;;;;;;;7.53;2.38;;;;;;;28.04;65.58;101072.34;5215308;28;20032;-72
2023/08/23 10:13:25;;;;;;;7.47;2.38;;;;;;;28.19;66.28;101068.13;5215257;28;20100;-72
2023/08/23 10:15:56;;;;;;;6.38;2.72;;;;;;;28.19;64.28;101068.97;5210629;28;20104;-71
2023/08/23 10:18:30;;;;;;;8.63;2.75;;;;;;;28.30;64.46;101059.81;5212321;28;20021;-73
2023/08/23 10:21:02;;;;;;;6.63;2.22;;;;;;;28.44;63.91;101057.44;5211819;28;20394;-72
2023/08/23 10:23:34;;;;;;;5.47;2.47;;;;;;;27.92;64.05;101060.97;5211530;28;20120;-72
2023/08/23 10:26:04;;;;;;;8.27;2.72;;;;;;;26.66;67.22;101061.00;5209468;28;20059;-71
2023/08/23 10:28:47;;;;;;;4.00;2.10;;;;;;;26.76;68.65;101068.84;5212265;28;20017;-71
2023/08/23 10:31:28;;;;;;;5.32;2.30;;;;;;;26.80;67.23;101061.38;5211952;28;20263;-72
2023/08/23 10:34:00;;;;;;;5.85;2.00;;;;;;;27.11;65.43;101057.50;5212094;28;20057;-71
2023/08/23 10:36:31;;;;;;;6.95;2.50;;;;;;;27.23;65.67;101056.28;5206664;28;20029;-72
2023/08/23 10:39:03;;;;;;;4.50;1.90;;;;;;;27.01;68.09;101053.94;5208982;28;20057;-73
2023/08/23 10:41:34;;;;;;;4.93;1.70;;;;;;;27.24;64.87;101053.47;5211660;28;20329;-72
2023/08/23 10:44:14;;;;;;;4.07;1.40;;;;;;;27.51;64.15;101048.09;5214213;28;20330;-72
2023/08/23 10:46:45;;;;;;;4.43;1.15;;;;;;;27.86;66.06;101048.16;5213910;28;20100;-72
2023/08/23 10:49:20;;;;;;;3.53;1.40;;;;;;;27.97;66.03;101039.03;5211402;28;20035;-72
2023/08/23 10:51:50;;;;;;;2.50;1.23;;;;;;;27.89;65.38;101042.47;5210595;28;20029;-71
2023/08/23 10:54:22;;;;;;;5.22;1.70;;;;;;;28.12;65.18;101041.00;5207479;28;20587;-72
2023/08/23 10:56:53;;;;;;;6.28;1.95;;;;;;;27.88;64.69;101046.16;5211451;28;20218;-72
2023/08/23 10:59:23;;;;;;;5.13;1.90;;;;;;;27.54;66.01;101044.22;5214187;28;20021;-72
2023/08/23 11:01:55;;;;;;;7.35;2.50;;;;;;;26.76;67.64;101042.03;5195456;28;20115;-72
2023/08/23 11:04:26;;;;;;;3.58;2.05;;;;;;;27.07;65.06;101040.78;5214476;28;20509;-72
2023/08/23 11:06:56;;;;;;;4.95;1.40;;;;;;;27.22;63.30;101039.34;5213688;28;20025;-72
2023/08/23 11:09:27;;;;;;;1.70;1.20;;;;;;;27.04;62.39;101045.59;5212777;28;20459;-72
2023/08/23 11:11:57;;;;;;;3.22;1.10;;;;;;;26.88;63.88;101045.38;5214763;28;20021;-72
2023/08/23 11:14:27;;;;;;;4.03;1.35;;;;;;;27.06;63.56;101044.47;5215442;28;20383;-72
2023/08/23 11:16:58;;;;;;;2.10;1.00;;;;;;;27.20;64.92;101038.66;5213006;28;20039;-72
2023/08/23 11:19:28;;;;;;;6.65;1.70;;;;;;;27.21;64.52;101036.78;5215351;28;20291;-72
2023/08/23 11:22:01;;;;;;;4.13;1.60;;;;;;;27.11;67.37;101031.47;5213627;28;20029;-73
2023/08/23 11:24:31;;;;;;;3.72;1.25;;;;;;;27.29;66.72;101035.03;5211637;28;20463;-72
2023/08/23 11:27:02;;;;;;;4.57;1.10;;;;;;;27.14;65.54;101035.72;5209392;28;20103;-71
2023/08/23 11:29:32;;;;;;;2.38;1.05;;;;;;;27.05;67.03;101032.03;5213629;28;20051;-72
2023/08/23 11:32:03;;;;;;;4.53;1.30;;;;;;;27.11;65.38;101030.63;5218704;28;20025;-71
2023/08/23 11:34:33;;;;;;;3.58;1.38;;;;;;;27.07;68.18;101027.38;5217120;28;20427;-72
2023/08/23 11:37:10;;;;;;;5.55;1.50;;;;;;;27.10;70.92;101027.09;5216135;28;20104;-71
2023/08/23 11:39:40;;;;;;;5.25;1.40;;;;;;;27.10;68.40;101023.59;5218413;28;20174;-73